Muikku — OHMM — position and weather

sailwx.info

Track history (hours):
 
Tides and Currents Weather Stations Pressure Air Temp Water Temp Dewpoint Dewpoint Depression Visibility Wind Speed Wind Dir Waves Ship Positions

Oceanographic research ship Muikku (Finland)

Detailed information on ship capabilities available from University of Delaware's Ocean Information Center.

Last reported at 2018-Sep-18 09:15 UTC. Time now 2018-Dec-12 02:42 UTC.
Position N 59°48' E 023°03'.
Warning: this ship's position is months out of date.

Type: Other ship. MMSI: 230298000.

Date/timePositionNaut miles runAvg speedWind from/ knotsBaromVisibWave heightAir tempDewpointWater temp
2018-Sep-18 09:15N 59°48' E 023°03'3 8.7
2018-Sep-18 08:58N 59°48' E 023°08'4 7.9
2018-Sep-18 08:30N 59°50' E 023°14'4 8.3
2018-Sep-18 08:03N 59°52' E 023°21'0 8.9
2018-Sep-18 08:00N 59°52' E 023°22'4 8.5
2018-Sep-18 07:30N 59°51' E 023°30'4 8.3
2018-Sep-18 07:03N 59°52' E 023°38'1 8.5
2018-Sep-18 06:57N 59°53' E 023°39'29 2.0
2018-Sep-17 16:16N 60°01' E 024°34'3 8.8
2018-Sep-17 15:57N 60°02' E 024°38'4 8.8
2018-Sep-17 15:30N 60°05' E 024°44'4 8.6
2018-Sep-17 15:03N 60°08' E 024°49'0 8.1
2018-Sep-17 15:00N 60°08' E 024°49'3 6.5
2018-Sep-17 14:30N 60°09' E 024°55'0 0.1
2018-Sep-17 13:59N 60°10' E 024°55'0 0.0
2018-Sep-17 13:29N 60°10' E 024°55'0 0.0
2018-Sep-17 13:02N 60°10' E 024°55'0 0.1
2018-Sep-17 12:59N 60°10' E 024°55'0 0.0
2018-Sep-17 12:29N 60°10' E 024°55'0 0.0
2018-Sep-17 12:02N 60°10' E 024°55'0 0.0
2018-Sep-17 11:56N 60°10' E 024°55'0 0.0
2018-Sep-17 11:26N 60°10' E 024°55'0 0.0
2018-Sep-17 11:02N 60°10' E 024°55'0 0.1
2018-Sep-17 10:59N 60°10' E 024°55'0 0.0
2018-Sep-17 10:26N 60°10' E 024°55'0 0.0
2018-Sep-17 10:02N 60°10' E 024°55'0 0.1
2018-Sep-17 09:59N 60°10' E 024°55'0 0.0
2018-Sep-17 09:17N 60°10' E 024°55'0 0.0
2018-Sep-17 09:02N 60°10' E 024°55'0 0.0
2018-Sep-17 08:47N 60°10' E 024°55'0 0.0
2018-Sep-17 08:29N 60°10' E 024°55'0 0.0
2018-Sep-17 07:59N 60°10' E 024°55'0 0.0
2018-Sep-17 07:23N 60°10' E 024°55'0 0.0
2018-Sep-17 07:02N 60°10' E 024°55'0 0.1
2018-Sep-17 06:59N 60°10' E 024°55'0 0.0
2018-Sep-17 06:29N 60°10' E 024°55'0 0.0
2018-Sep-17 06:02N 60°10' E 024°55'0 0.0
2018-Sep-17 05:59N 60°10' E 024°55'0 0.0
2018-Sep-17 05:29N 60°10' E 024°55'0 0.0
2018-Sep-17 05:02N 60°10' E 024°55'0 0.0
2018-Sep-17 04:59N 60°10' E 024°55'0 0.0
2018-Sep-17 04:26N 60°10' E 024°55'0 0.0
2018-Sep-17 03:53N 60°10' E 024°55'0 0.0
2018-Sep-17 03:29N 60°10' E 024°55'0 0.0
2018-Sep-17 03:02N 60°10' E 024°55'0 0.0
2018-Sep-17 02:59N 60°10' E 024°55'0 0.0
2018-Sep-17 02:26N 60°10' E 024°55'0 0.0
2018-Sep-17 02:02N 60°10' E 024°55'0 0.0
2018-Sep-17 01:59N 60°10' E 024°55'0 0.0
2018-Sep-17 01:29N 60°10' E 024°55'0 0.0
2018-Sep-17 01:02N 60°10' E 024°55'0 0.0
2018-Sep-17 00:59N 60°10' E 024°55'0 0.0
2018-Sep-17 00:29N 60°10' E 024°55'0 0.0
2018-Sep-17 00:02N 60°10' E 024°55'0 0.0
2018-Sep-16 23:59N 60°10' E 024°55'0 0.0
2018-Sep-16 23:29N 60°10' E 024°55'0 0.0
2018-Sep-16 23:02N 60°10' E 024°55'0 0.0
2018-Sep-16 22:59N 60°10' E 024°55'0 0.0
2018-Sep-16 22:29N 60°10' E 024°55'0 0.0
2018-Sep-16 22:02N 60°10' E 024°55'0 0.0
2018-Sep-16 21:59N 60°10' E 024°55'0 0.0
2018-Sep-16 21:29N 60°10' E 024°55'0 0.0
2018-Sep-16 21:02N 60°10' E 024°55'0 0.1
2018-Sep-16 20:59N 60°10' E 024°55'0 0.0
2018-Sep-16 20:29N 60°10' E 024°55'0 0.0
2018-Sep-16 20:02N 60°10' E 024°55'0 0.1
2018-Sep-16 19:59N 60°10' E 024°55'0 0.0
2018-Sep-16 19:29N 60°10' E 024°55'0 0.0
2018-Sep-16 19:02N 60°10' E 024°55'0 0.0
2018-Sep-16 18:59N 60°10' E 024°55'0 0.0
2018-Sep-16 18:26N 60°10' E 024°55'0 0.0
2018-Sep-16 18:02N 60°10' E 024°55'0 0.0
2018-Sep-16 17:59N 60°10' E 024°55'0 0.0
2018-Sep-16 17:26N 60°10' E 024°55'0 0.0
2018-Sep-16 17:02N 60°10' E 024°55'0 0.0
2018-Sep-16 16:59N 60°10' E 024°55'0 0.0
2018-Sep-16 16:26N 60°10' E 024°55'0 0.0
2018-Sep-16 16:02N 60°10' E 024°55'0 0.0
2018-Sep-16 15:59N 60°10' E 024°55'  
2018-Sep-13 21:25N 60°10' E 024°55'0 0.0
2018-Sep-13 21:01N 60°10' E 024°55'0 0.0
2018-Sep-13 20:58N 60°10' E 024°55'0 0.0
2018-Sep-13 20:25N 60°10' E 024°55'0 0.0
2018-Sep-13 20:01N 60°10' E 024°55'0 0.0
2018-Sep-13 19:58N 60°10' E 024°55'0 0.0
2018-Sep-13 19:28N 60°10' E 024°55'0 0.0
2018-Sep-13 19:01N 60°10' E 024°55'0 0.0
2018-Sep-13 18:55N 60°10' E 024°55'0 0.0
2018-Sep-13 18:28N 60°10' E 024°55'0 0.0
2018-Sep-13 18:01N 60°10' E 024°55'0 0.0
2018-Sep-13 17:58N 60°10' E 024°55'0 0.0
2018-Sep-13 17:25N 60°10' E 024°55'0 0.0
2018-Sep-13 17:01N 60°10' E 024°55'0 0.1
2018-Sep-13 16:58N 60°10' E 024°55'0 0.0
2018-Sep-13 16:25N 60°10' E 024°55'0 0.0
2018-Sep-13 15:58N 60°10' E 024°55'0 0.0
2018-Sep-13 15:25N 60°10' E 024°55'0 0.0
2018-Sep-13 15:01N 60°10' E 024°55'0 0.0
2018-Sep-13 14:58N 60°10' E 024°55'0 0.0
2018-Sep-13 14:25N 60°10' E 024°55'0 0.0
2018-Sep-13 13:58N 60°10' E 024°55'0 0.0
2018-Sep-13 13:28N 60°10' E 024°55'0 0.0
2018-Sep-13 13:01N 60°10' E 024°55'0 0.0
2018-Sep-13 12:58N 60°10' E 024°55'0 0.0
2018-Sep-13 12:28N 60°10' E 024°55'0 0.0
2018-Sep-13 12:01N 60°10' E 024°55'0 0.0
2018-Sep-13 11:58N 60°10' E 024°55'0 0.0
2018-Sep-13 11:28N 60°10' E 024°55'0 0.0
2018-Sep-13 11:01N 60°10' E 024°55'0 0.0
2018-Sep-13 10:58N 60°10' E 024°55'0 0.0
2018-Sep-13 10:28N 60°10' E 024°55'0 0.0
2018-Sep-13 10:01N 60°10' E 024°55'0 0.0
2018-Sep-13 09:58N 60°10' E 024°55'0 0.0
2018-Sep-13 09:28N 60°10' E 024°55'0 0.0
2018-Sep-13 09:01N 60°10' E 024°55'0 0.0
2018-Sep-13 08:52N 60°10' E 024°55'0 0.0
2018-Sep-13 08:28N 60°10' E 024°55'0 0.0
2018-Sep-13 08:01N 60°10' E 024°55'0 0.0
2018-Sep-13 07:58N 60°10' E 024°55'0 0.0
2018-Sep-13 07:28N 60°10' E 024°55'0 0.0
2018-Sep-13 07:01N 60°10' E 024°55'0 0.0
2018-Sep-13 06:58N 60°10' E 024°55'0 0.0
2018-Sep-13 06:28N 60°10' E 024°55'0 0.0
2018-Sep-13 06:01N 60°10' E 024°55'0 0.0
2018-Sep-13 05:58N 60°10' E 024°55'0 0.0
2018-Sep-13 05:28N 60°10' E 024°55'0 0.0
2018-Sep-13 05:01N 60°10' E 024°55'0 0.4
2018-Sep-13 04:58N 60°10' E 024°55'0 0.0
2018-Sep-13 04:28N 60°10' E 024°55'0 0.0
2018-Sep-13 04:01N 60°10' E 024°55'0 0.1
2018-Sep-13 03:58N 60°10' E 024°55'0 0.0
2018-Sep-13 03:28N 60°10' E 024°55'0 0.0
2018-Sep-13 03:01N 60°10' E 024°55'0 0.0
2018-Sep-13 02:58N 60°10' E 024°55'0 0.0
2018-Sep-13 02:28N 60°10' E 024°55'0 0.0
2018-Sep-13 02:01N 60°10' E 024°55'0 0.0
2018-Sep-13 01:55N 60°10' E 024°55'0 0.0
2018-Sep-13 01:28N 60°10' E 024°55'0 0.0
2018-Sep-13 01:01N 60°10' E 024°55'0 0.1
2018-Sep-13 00:58N 60°10' E 024°55'0 0.0
2018-Sep-13 00:28N 60°10' E 024°55'0 0.0
2018-Sep-13 00:01N 60°10' E 024°55'0 0.0
2018-Sep-12 23:58N 60°10' E 024°55'0 0.0
2018-Sep-12 23:28N 60°10' E 024°55'0 0.0
2018-Sep-12 22:58N 60°10' E 024°55'0 0.0
2018-Sep-12 22:28N 60°10' E 024°55'0 0.0
2018-Sep-12 22:01N 60°10' E 024°55'0 0.0
2018-Sep-12 21:58N 60°10' E 024°55'0 0.0
2018-Sep-12 21:28N 60°10' E 024°55'0 0.0
2018-Sep-12 21:01N 60°10' E 024°55'0 0.0
2018-Sep-12 20:55N 60°10' E 024°55'0 0.0
2018-Sep-12 20:28N 60°10' E 024°55'0 0.0
2018-Sep-12 20:01N 60°10' E 024°55'0 0.0
2018-Sep-12 19:55N 60°10' E 024°55'0 0.0
2018-Sep-12 19:28N 60°10' E 024°55'0 0.0
2018-Sep-12 19:01N 60°10' E 024°55'0 0.0
2018-Sep-12 18:58N 60°10' E 024°55'0 0.0
2018-Sep-12 18:25N 60°10' E 024°55'0 0.0
2018-Sep-12 18:01N 60°10' E 024°55'0 0.0
2018-Sep-12 17:58N 60°10' E 024°55'0 0.0
2018-Sep-12 17:28N 60°10' E 024°55'0 0.0
2018-Sep-12 17:01N 60°10' E 024°55'0 0.0
2018-Sep-12 16:55N 60°10' E 024°55'0 0.0
2018-Sep-12 16:28N 60°10' E 024°55'0 0.0
2018-Sep-12 16:01N 60°10' E 024°55'0 0.0
2018-Sep-12 15:55N 60°10' E 024°55'0 0.0
2018-Sep-12 15:28N 60°10' E 024°55'0 0.0
2018-Sep-12 15:01N 60°10' E 024°55'0 0.0
2018-Sep-12 14:58N 60°10' E 024°55'0 0.0
2018-Sep-12 14:28N 60°10' E 024°55'0 0.0
2018-Sep-12 13:58N 60°10' E 024°55'0 0.0
2018-Sep-12 13:28N 60°10' E 024°55'0 0.1
2018-Sep-12 13:01N 60°09' E 024°55'0 0.4
2018-Sep-12 12:58N 60°10' E 024°55'0 0.0
2018-Sep-12 12:30N 60°10' E 024°55'0 0.0
2018-Sep-12 12:03N 60°10' E 024°55'0 0.0
2018-Sep-12 12:00N 60°10' E 024°55'0 0.0
2018-Sep-12 11:27N 60°10' E 024°55'0 0.0
2018-Sep-12 11:03N 60°10' E 024°55'0 0.0
2018-Sep-12 11:00N 60°10' E 024°55'0 0.0
2018-Sep-12 10:30N 60°10' E 024°55'0 0.0
2018-Sep-12 10:03N 60°10' E 024°55'0 0.0
2018-Sep-12 09:45N 60°10' E 024°55'0 0.0
2018-Sep-12 09:31N 60°10' E 024°55'0 0.0
2018-Sep-12 08:59N 60°10' E 024°55'0 0.0
2018-Sep-12 08:29N 60°10' E 024°55'0 0.0
2018-Sep-12 08:01N 60°10' E 024°55'0 0.0
2018-Sep-12 07:55N 60°10' E 024°55'0 0.0
2018-Sep-12 07:28N 60°10' E 024°55'0 0.0
2018-Sep-12 06:58N 60°10' E 024°55'0 0.0
2018-Sep-12 06:28N 60°10' E 024°55'0 0.0
2018-Sep-12 05:59N 60°10' E 024°55'0 0.0
2018-Sep-12 05:30N 60°10' E 024°55'0 0.0
2018-Sep-12 05:03N 60°10' E 024°55'0 0.0
2018-Sep-12 05:00N 60°10' E 024°55'0 0.0
2018-Sep-12 04:30N 60°10' E 024°55'0 0.0
2018-Sep-12 04:02N 60°10' E 024°55'0 0.0
2018-Sep-12 03:59N 60°10' E 024°55'0 0.0
2018-Sep-12 03:29N 60°10' E 024°55'0 0.0
2018-Sep-12 03:02N 60°10' E 024°55'0 0.0
2018-Sep-12 02:59N 60°10' E 024°55'0 0.0
2018-Sep-12 02:29N 60°10' E 024°55'0 0.0
2018-Sep-12 02:02N 60°10' E 024°55'0 0.0
2018-Sep-12 01:56N 60°10' E 024°55'0 0.0
2018-Sep-12 01:29N 60°10' E 024°55'0 0.0
2018-Sep-12 01:02N 60°10' E 024°55'0 0.0
2018-Sep-12 00:59N 60°10' E 024°55'0 0.0
2018-Sep-12 00:29N 60°10' E 024°55'0 0.0
2018-Sep-12 00:02N 60°10' E 024°55'0 0.0
2018-Sep-11 23:59N 60°10' E 024°55'0 0.0
2018-Sep-11 23:29N 60°10' E 024°55'0 0.0
2018-Sep-11 23:02N 60°10' E 024°55'0 0.0
2018-Sep-11 22:59N 60°10' E 024°55'0 0.0
2018-Sep-11 22:29N 60°10' E 024°55'0 0.0
2018-Sep-11 22:02N 60°10' E 024°55'0 0.0
2018-Sep-11 21:59N 60°10' E 024°55'0 0.0
2018-Sep-11 21:29N 60°10' E 024°55'0 0.0
2018-Sep-11 21:02N 60°10' E 024°55'0 0.0
2018-Sep-11 20:59N 60°10' E 024°55'0 0.0
2018-Sep-11 20:29N 60°10' E 024°55'0 0.0
2018-Sep-11 20:02N 60°10' E 024°55'0 0.0
2018-Sep-11 19:59N 60°10' E 024°55'0 0.0
2018-Sep-11 19:29N 60°10' E 024°55'0 0.0
2018-Sep-11 19:02N 60°10' E 024°55'0 0.0
2018-Sep-11 18:59N 60°10' E 024°55'0 0.0
2018-Sep-11 18:29N 60°10' E 024°55'0 0.0
2018-Sep-11 18:02N 60°10' E 024°55'0 0.0
2018-Sep-11 17:59N 60°10' E 024°55'0 0.0
2018-Sep-11 17:29N 60°10' E 024°55'0 0.0
2018-Sep-11 17:02N 60°10' E 024°55'0 0.0
2018-Sep-11 16:59N 60°10' E 024°55'0 0.0
2018-Sep-11 16:29N 60°10' E 024°55'0 0.0
2018-Sep-11 16:02N 60°10' E 024°55'0 0.0
2018-Sep-11 15:59N 60°10' E 024°55'0 0.0
2018-Sep-11 15:29N 60°10' E 024°55'0 0.0
2018-Sep-11 15:02N 60°10' E 024°55'0 0.0
2018-Sep-11 14:59N 60°10' E 024°55'0 0.0
2018-Sep-11 14:29N 60°10' E 024°55'0 0.0
2018-Sep-11 13:59N 60°10' E 024°55'0 0.0
2018-Sep-11 13:23N 60°10' E 024°55'0 0.0
2018-Sep-11 13:02N 60°10' E 024°55'0 0.0
2018-Sep-11 12:56N 60°10' E 024°55'0 0.0
2018-Sep-11 12:29N 60°10' E 024°55'0 0.0
2018-Sep-11 12:02N 60°10' E 024°55'0 0.0
2018-Sep-11 11:53N 60°10' E 024°55'0 0.0
2018-Sep-11 11:29N 60°10' E 024°55'0 0.0
2018-Sep-11 11:02N 60°10' E 024°55'0 0.0
2018-Sep-11 10:59N 60°10' E 024°55'0 0.0
2018-Sep-11 10:29N 60°10' E 024°55'0 0.0
2018-Sep-11 10:02N 60°10' E 024°55'0 0.0
2018-Sep-11 09:59N 60°10' E 024°55'0 0.0
2018-Sep-11 09:29N 60°10' E 024°55'0 0.0
2018-Sep-11 09:02N 60°10' E 024°55'0 0.0
2018-Sep-11 08:59N 60°10' E 024°55'0 0.0
2018-Sep-11 08:29N 60°10' E 024°55'0 0.0
2018-Sep-11 08:02N 60°10' E 024°55'0 0.0
2018-Sep-11 07:59N 60°10' E 024°55'0 0.0
2018-Sep-11 07:29N 60°10' E 024°55'0 0.0
2018-Sep-11 07:02N 60°10' E 024°55'0 0.0
2018-Sep-11 06:59N 60°10' E 024°55'0 0.0
2018-Sep-11 06:26N 60°10' E 024°55'0 0.0
2018-Sep-11 06:02N 60°10' E 024°55'0 0.0
2018-Sep-11 05:59N 60°10' E 024°55'0 0.0
2018-Sep-11 05:29N 60°10' E 024°55'0 0.0
2018-Sep-11 04:59N 60°10' E 024°55'0 0.0
2018-Sep-11 04:26N 60°10' E 024°55'0 0.0
2018-Sep-11 04:02N 60°10' E 024°55'0 0.0
2018-Sep-11 03:59N 60°10' E 024°55'0 0.0
2018-Sep-11 03:29N 60°10' E 024°55'0 0.0
2018-Sep-11 03:02N 60°10' E 024°55'0 0.0
2018-Sep-11 02:59N 60°10' E 024°55'0 0.0
2018-Sep-11 02:26N 60°10' E 024°55'0 0.0
2018-Sep-11 02:02N 60°10' E 024°55'0 0.0
2018-Sep-11 01:59N 60°10' E 024°55'0 0.0
2018-Sep-11 01:26N 60°10' E 024°55'0 0.0
2018-Sep-11 01:02N 60°10' E 024°55'0 0.0
2018-Sep-11 00:59N 60°10' E 024°55'0 0.0
2018-Sep-11 00:29N 60°10' E 024°55'0 0.0
2018-Sep-11 00:02N 60°10' E 024°55'0 0.0
2018-Sep-10 23:56N 60°10' E 024°55'0 0.0
2018-Sep-10 23:29N 60°10' E 024°55'0 0.0
2018-Sep-10 23:02N 60°10' E 024°55'0 0.0
2018-Sep-10 22:56N 60°10' E 024°55'0 0.0
2018-Sep-10 22:26N 60°10' E 024°55'0 0.0
2018-Sep-10 22:02N 60°10' E 024°55'0 0.0
2018-Sep-10 21:59N 60°10' E 024°55'0 0.0
2018-Sep-10 21:29N 60°10' E 024°55'0 0.0
2018-Sep-10 21:02N 60°10' E 024°55'0 0.0
2018-Sep-10 20:59N 60°10' E 024°55'0 0.0
2018-Sep-10 20:29N 60°10' E 024°55'0 0.0
2018-Sep-10 19:59N 60°10' E 024°55'0 0.0
2018-Sep-10 19:29N 60°10' E 024°55'0 0.0
2018-Sep-10 19:02N 60°10' E 024°55'0 0.0
2018-Sep-10 18:56N 60°10' E 024°55'0 0.0
2018-Sep-10 18:29N 60°10' E 024°55'0 0.0
2018-Sep-10 18:02N 60°10' E 024°55'0 0.0
2018-Sep-10 17:59N 60°10' E 024°55'0 0.0
2018-Sep-10 17:29N 60°10' E 024°55'0 0.0
2018-Sep-10 17:02N 60°10' E 024°55'0 0.0
2018-Sep-10 16:56N 60°10' E 024°55'0 0.0
2018-Sep-10 16:29N 60°10' E 024°55'0 0.0
2018-Sep-10 16:02N 60°10' E 024°55'0 0.0
2018-Sep-10 15:59N 60°10' E 024°55'0 0.0
2018-Sep-10 15:29N 60°10' E 024°55'0 0.0
2018-Sep-10 15:02N 60°10' E 024°55'0 0.0
2018-Sep-10 14:59N 60°10' E 024°55'0 0.0
2018-Sep-10 14:29N 60°10' E 024°55'0 0.0
2018-Sep-10 13:59N 60°10' E 024°55'0 0.0
2018-Sep-10 13:29N 60°10' E 024°55'0 0.0
2018-Sep-10 13:02N 60°10' E 024°55'0 0.1
2018-Sep-10 12:59N 60°10' E 024°55'0 0.0
2018-Sep-10 12:29N 60°10' E 024°55'0 0.0
2018-Sep-10 12:02N 60°10' E 024°55'0 0.0
2018-Sep-10 11:59N 60°10' E 024°55'0 0.0
2018-Sep-10 11:29N 60°10' E 024°55'0 0.0
2018-Sep-10 11:02N 60°10' E 024°55'0 0.0
2018-Sep-10 10:59N 60°10' E 024°55'0 0.0
2018-Sep-10 10:29N 60°10' E 024°55'0 0.0
2018-Sep-10 10:02N 60°10' E 024°55'0 0.0
2018-Sep-10 09:59N 60°10' E 024°55'0 0.0
2018-Sep-10 09:29N 60°10' E 024°55'0 0.0
2018-Sep-10 09:02N 60°10' E 024°55'0 0.0
2018-Sep-10 08:59N 60°10' E 024°55'0 0.0
2018-Sep-10 08:29N 60°10' E 024°55'0 0.0
2018-Sep-10 07:59N 60°10' E 024°55'0 0.0
2018-Sep-10 07:29N 60°10' E 024°55'0 0.0
2018-Sep-10 07:02N 60°10' E 024°55'0 0.0
2018-Sep-10 06:59N 60°10' E 024°55'0 0.0
2018-Sep-10 06:29N 60°10' E 024°55'0 0.0
2018-Sep-10 06:02N 60°10' E 024°55'0 0.0
2018-Sep-10 05:59N 60°10' E 024°55'0 0.0
2018-Sep-10 05:29N 60°10' E 024°55'0 0.0
2018-Sep-10 05:02N 60°10' E 024°55'0 0.0
2018-Sep-10 04:59N 60°10' E 024°55'0 0.0
2018-Sep-10 04:29N 60°10' E 024°55'0 0.0
2018-Sep-10 04:02N 60°10' E 024°55'0 0.0
2018-Sep-10 03:59N 60°10' E 024°55'0 0.0
2018-Sep-10 03:26N 60°10' E 024°55'0 0.0
2018-Sep-10 03:02N 60°10' E 024°55'0 0.0
2018-Sep-10 02:56N 60°10' E 024°55'0 0.0
2018-Sep-10 02:29N 60°10' E 024°55'0 0.0
2018-Sep-10 01:59N 60°10' E 024°55'0 0.0
2018-Sep-10 01:29N 60°10' E 024°55'0 0.0
2018-Sep-10 01:02N 60°10' E 024°55'0 0.0
2018-Sep-10 00:56N 60°10' E 024°55'0 0.0
2018-Sep-10 00:29N 60°10' E 024°55'0 0.0
2018-Sep-10 00:02N 60°10' E 024°55'0 0.0
2018-Sep-09 23:59N 60°10' E 024°55'0 0.0
2018-Sep-09 23:26N 60°10' E 024°55'0 0.0
2018-Sep-09 23:02N 60°10' E 024°55'0 0.0
2018-Sep-09 22:59N 60°10' E 024°55'0 0.0
2018-Sep-09 22:29N 60°10' E 024°55'0 0.0
2018-Sep-09 22:02N 60°10' E 024°55'0 0.0
2018-Sep-09 21:59N 60°10' E 024°55'0 0.0
2018-Sep-09 21:29N 60°10' E 024°55'0 0.0
2018-Sep-09 21:02N 60°10' E 024°55'0 0.0
2018-Sep-09 20:59N 60°10' E 024°55'0 0.0
2018-Sep-09 20:23N 60°10' E 024°55'0 0.0
2018-Sep-09 20:02N 60°10' E 024°55'0 0.0
2018-Sep-09 19:59N 60°10' E 024°55'0 0.0
2018-Sep-09 19:29N 60°10' E 024°55'0 0.0
2018-Sep-09 19:02N 60°10' E 024°55'0 0.0
2018-Sep-09 18:59N 60°10' E 024°55'0 0.0
2018-Sep-09 18:29N 60°10' E 024°55'0 0.0
2018-Sep-09 17:59N 60°10' E 024°55'0 0.0
2018-Sep-09 17:29N 60°10' E 024°55'0 0.0
2018-Sep-09 16:59N 60°10' E 024°55'0 0.0
2018-Sep-09 16:29N 60°10' E 024°55'0 0.0
2018-Sep-09 16:02N 60°10' E 024°55'0 0.0
2018-Sep-09 15:59N 60°10' E 024°55'0 0.0
2018-Sep-09 15:29N 60°10' E 024°55'0 0.0
2018-Sep-09 14:59N 60°10' E 024°55'0 0.0
2018-Sep-09 14:26N 60°10' E 024°55'0 0.0
2018-Sep-09 13:59N 60°10' E 024°55'0 0.0
2018-Sep-09 13:29N 60°10' E 024°55'0 0.0
2018-Sep-09 13:02N 60°10' E 024°55'0 0.0
2018-Sep-09 12:59N 60°10' E 024°55'0 0.0
2018-Sep-09 12:29N 60°10' E 024°55'0 0.0
2018-Sep-09 12:02N 60°10' E 024°55'0 0.0
2018-Sep-09 11:59N 60°10' E 024°55'0 0.0
2018-Sep-09 11:29N 60°10' E 024°55'0 0.0
2018-Sep-09 11:02N 60°10' E 024°55'0 0.0
2018-Sep-09 10:59N 60°10' E 024°55'0 0.0
2018-Sep-09 10:29N 60°10' E 024°55'0 0.0
2018-Sep-09 10:02N 60°10' E 024°55'0 0.0
2018-Sep-09 09:59N 60°10' E 024°55'0 0.0
2018-Sep-09 09:29N 60°10' E 024°55'0 0.0
2018-Sep-09 09:02N 60°10' E 024°55'0 0.0
2018-Sep-09 08:56N 60°10' E 024°55'0 0.0
2018-Sep-09 08:29N 60°10' E 024°55'0 0.0
2018-Sep-09 08:02N 60°10' E 024°55'0 0.0
2018-Sep-09 07:59N 60°10' E 024°55'0 0.0
2018-Sep-09 07:29N 60°10' E 024°55'0 0.0
2018-Sep-09 07:02N 60°10' E 024°55'0 0.0
2018-Sep-09 06:59N 60°10' E 024°55'0 0.0
2018-Sep-09 06:29N 60°10' E 024°55'0 0.0
2018-Sep-09 06:02N 60°10' E 024°55'0 0.0
2018-Sep-09 05:59N 60°10' E 024°55'0 0.0
2018-Sep-09 05:29N 60°10' E 024°55'0 0.0
2018-Sep-09 04:59N 60°10' E 024°55'0 0.0
2018-Sep-09 04:29N 60°10' E 024°55'0 0.0
2018-Sep-09 04:02N 60°10' E 024°55'0 0.0
2018-Sep-09 03:59N 60°10' E 024°55'0 0.0
2018-Sep-09 03:29N 60°10' E 024°55'0 0.0
2018-Sep-09 03:02N 60°10' E 024°55'0 0.0
2018-Sep-09 02:59N 60°10' E 024°55'0 0.0
2018-Sep-09 02:29N 60°10' E 024°55'0 0.0
2018-Sep-09 02:02N 60°10' E 024°55'0 0.0
2018-Sep-09 01:59N 60°10' E 024°55'0 0.0
2018-Sep-09 01:29N 60°10' E 024°55'0 0.0
2018-Sep-09 00:59N 60°10' E 024°55'0 0.0
2018-Sep-09 00:29N 60°10' E 024°55'0 0.0
2018-Sep-09 00:02N 60°10' E 024°55'0 0.0
2018-Sep-08 23:59N 60°10' E 024°55'0 0.0
2018-Sep-08 23:26N 60°10' E 024°55'0 0.0
2018-Sep-08 23:02N 60°10' E 024°55'0 0.0
2018-Sep-08 22:59N 60°10' E 024°55'0 0.0
2018-Sep-08 22:29N 60°10' E 024°55'0 0.0
2018-Sep-08 21:59N 60°10' E 024°55'0 0.0
2018-Sep-08 21:29N 60°10' E 024°55'0 0.0
2018-Sep-08 21:02N 60°10' E 024°55'0 0.0
2018-Sep-08 20:59N 60°10' E 024°55'0 0.0
2018-Sep-08 20:29N 60°10' E 024°55'0 0.0
2018-Sep-08 19:59N 60°10' E 024°55'0 0.0
2018-Sep-08 19:29N 60°10' E 024°55'0 0.0
2018-Sep-08 19:02N 60°10' E 024°55'0 0.0
2018-Sep-08 18:59N 60°10' E 024°55'0 0.0
2018-Sep-08 18:26N 60°10' E 024°55'0 0.0
2018-Sep-08 18:02N 60°10' E 024°55'0 0.0
2018-Sep-08 17:59N 60°10' E 024°55'0 0.0
2018-Sep-08 17:29N 60°10' E 024°55'0 0.0
2018-Sep-08 17:02N 60°10' E 024°55'0 0.0
2018-Sep-08 16:59N 60°10' E 024°55'0 0.0
2018-Sep-08 16:29N 60°10' E 024°55'0 0.0
2018-Sep-08 15:59N 60°10' E 024°55'0 0.0
2018-Sep-08 15:29N 60°10' E 024°55'0 0.0
2018-Sep-08 14:59N 60°10' E 024°55'0 0.0
2018-Sep-08 14:29N 60°10' E 024°55'0 0.0
2018-Sep-08 13:59N 60°10' E 024°55'0 0.0
2018-Sep-08 13:29N 60°10' E 024°55'0 0.0
2018-Sep-08 13:02N 60°10' E 024°55'0 0.0
2018-Sep-08 12:59N 60°10' E 024°55'0 0.0
2018-Sep-08 12:26N 60°10' E 024°55'0 0.0
2018-Sep-08 11:59N 60°10' E 024°55'0 0.0
2018-Sep-08 11:29N 60°10' E 024°55'0 0.0
2018-Sep-08 11:02N 60°10' E 024°55'0 0.0
2018-Sep-08 10:59N 60°10' E 024°55'0 0.0
2018-Sep-08 10:29N 60°10' E 024°55'0 0.0
2018-Sep-08 10:02N 60°10' E 024°55'0 0.0
2018-Sep-08 09:59N 60°10' E 024°55'0 0.0
2018-Sep-08 09:29N 60°10' E 024°55'  
Track history (hours):
 
Tides and Currents Weather Stations Pressure Air Temp Water Temp Dewpoint Dewpoint Depression Visibility Wind Speed Wind Dir Waves Ship Positions

Oceanographic research ship Muikku (Finland)

Detailed information on ship capabilities available from University of Delaware's Ocean Information Center.

Last reported at 2018-Sep-18 09:15 UTC. Time now 2018-Dec-12 02:42 UTC.
Position N 59°48' E 023°03'.
Warning: this ship's position is months out of date.

Type: Other ship. MMSI: 230298000.

Date/timePositionNaut miles runAvg speedWind from/ knotsBaromVisibWave heightAir tempDewpointWater temp
2018-Sep-18 09:15N 59°48' E 023°03'3 8.7
2018-Sep-18 08:58N 59°48' E 023°08'4 7.9
2018-Sep-18 08:30N 59°50' E 023°14'4 8.3
2018-Sep-18 08:03N 59°52' E 023°21'0 8.9
2018-Sep-18 08:00N 59°52' E 023°22'4 8.5
2018-Sep-18 07:30N 59°51' E 023°30'4 8.3
2018-Sep-18 07:03N 59°52' E 023°38'1 8.5
2018-Sep-18 06:57N 59°53' E 023°39'29 2.0
2018-Sep-17 16:16N 60°01' E 024°34'3 8.8
2018-Sep-17 15:57N 60°02' E 024°38'4 8.8
2018-Sep-17 15:30N 60°05' E 024°44'4 8.6
2018-Sep-17 15:03N 60°08' E 024°49'0 8.1
2018-Sep-17 15:00N 60°08' E 024°49'3 6.5
2018-Sep-17 14:30N 60°09' E 024°55'0 0.1
2018-Sep-17 13:59N 60°10' E 024°55'0 0.0
2018-Sep-17 13:29N 60°10' E 024°55'0 0.0
2018-Sep-17 13:02N 60°10' E 024°55'0 0.1
2018-Sep-17 12:59N 60°10' E 024°55'0 0.0
2018-Sep-17 12:29N 60°10' E 024°55'0 0.0
2018-Sep-17 12:02N 60°10' E 024°55'0 0.0
2018-Sep-17 11:56N 60°10' E 024°55'0 0.0
2018-Sep-17 11:26N 60°10' E 024°55'0 0.0
2018-Sep-17 11:02N 60°10' E 024°55'0 0.1
2018-Sep-17 10:59N 60°10' E 024°55'0 0.0
2018-Sep-17 10:26N 60°10' E 024°55'0 0.0
2018-Sep-17 10:02N 60°10' E 024°55'0 0.1
2018-Sep-17 09:59N 60°10' E 024°55'0 0.0
2018-Sep-17 09:17N 60°10' E 024°55'0 0.0
2018-Sep-17 09:02N 60°10' E 024°55'0 0.0
2018-Sep-17 08:47N 60°10' E 024°55'0 0.0
2018-Sep-17 08:29N 60°10' E 024°55'0 0.0
2018-Sep-17 07:59N 60°10' E 024°55'0 0.0
2018-Sep-17 07:23N 60°10' E 024°55'0 0.0
2018-Sep-17 07:02N 60°10' E 024°55'0 0.1
2018-Sep-17 06:59N 60°10' E 024°55'0 0.0
2018-Sep-17 06:29N 60°10' E 024°55'0 0.0
2018-Sep-17 06:02N 60°10' E 024°55'0 0.0
2018-Sep-17 05:59N 60°10' E 024°55'0 0.0
2018-Sep-17 05:29N 60°10' E 024°55'0 0.0
2018-Sep-17 05:02N 60°10' E 024°55'0 0.0
2018-Sep-17 04:59N 60°10' E 024°55'0 0.0
2018-Sep-17 04:26N 60°10' E 024°55'0 0.0
2018-Sep-17 03:53N 60°10' E 024°55'0 0.0
2018-Sep-17 03:29N 60°10' E 024°55'0 0.0
2018-Sep-17 03:02N 60°10' E 024°55'0 0.0
2018-Sep-17 02:59N 60°10' E 024°55'0 0.0
2018-Sep-17 02:26N 60°10' E 024°55'0 0.0
2018-Sep-17 02:02N 60°10' E 024°55'0 0.0
2018-Sep-17 01:59N 60°10' E 024°55'0 0.0
2018-Sep-17 01:29N 60°10' E 024°55'0 0.0
2018-Sep-17 01:02N 60°10' E 024°55'0 0.0
2018-Sep-17 00:59N 60°10' E 024°55'0 0.0
2018-Sep-17 00:29N 60°10' E 024°55'0 0.0
2018-Sep-17 00:02N 60°10' E 024°55'0 0.0
2018-Sep-16 23:59N 60°10' E 024°55'0 0.0
2018-Sep-16 23:29N 60°10' E 024°55'0 0.0
2018-Sep-16 23:02N 60°10' E 024°55'0 0.0
2018-Sep-16 22:59N 60°10' E 024°55'0 0.0
2018-Sep-16 22:29N 60°10' E 024°55'0 0.0
2018-Sep-16 22:02N 60°10' E 024°55'0 0.0
2018-Sep-16 21:59N 60°10' E 024°55'0 0.0
2018-Sep-16 21:29N 60°10' E 024°55'0 0.0
2018-Sep-16 21:02N 60°10' E 024°55'0 0.1
2018-Sep-16 20:59N 60°10' E 024°55'0 0.0
2018-Sep-16 20:29N 60°10' E 024°55'0 0.0
2018-Sep-16 20:02N 60°10' E 024°55'0 0.1
2018-Sep-16 19:59N 60°10' E 024°55'0 0.0
2018-Sep-16 19:29N 60°10' E 024°55'0 0.0
2018-Sep-16 19:02N 60°10' E 024°55'0 0.0
2018-Sep-16 18:59N 60°10' E 024°55'0 0.0
2018-Sep-16 18:26N 60°10' E 024°55'0 0.0
2018-Sep-16 18:02N 60°10' E 024°55'0 0.0
2018-Sep-16 17:59N 60°10' E 024°55'0 0.0
2018-Sep-16 17:26N 60°10' E 024°55'0 0.0
2018-Sep-16 17:02N 60°10' E 024°55'0 0.0
2018-Sep-16 16:59N 60°10' E 024°55'0 0.0
2018-Sep-16 16:26N 60°10' E 024°55'0 0.0
2018-Sep-16 16:02N 60°10' E 024°55'0 0.0
2018-Sep-16 15:59N 60°10' E 024°55'  
2018-Sep-13 21:25N 60°10' E 024°55'0 0.0
2018-Sep-13 21:01N 60°10' E 024°55'0 0.0
2018-Sep-13 20:58N 60°10' E 024°55'0 0.0
2018-Sep-13 20:25N 60°10' E 024°55'0 0.0
2018-Sep-13 20:01N 60°10' E 024°55'0 0.0
2018-Sep-13 19:58N 60°10' E 024°55'0 0.0
2018-Sep-13 19:28N 60°10' E 024°55'0 0.0
2018-Sep-13 19:01N 60°10' E 024°55'0 0.0
2018-Sep-13 18:55N 60°10' E 024°55'0 0.0
2018-Sep-13 18:28N 60°10' E 024°55'0 0.0
2018-Sep-13 18:01N 60°10' E 024°55'0 0.0
2018-Sep-13 17:58N 60°10' E 024°55'0 0.0
2018-Sep-13 17:25N 60°10' E 024°55'0 0.0
2018-Sep-13 17:01N 60°10' E 024°55'0 0.1
2018-Sep-13 16:58N 60°10' E 024°55'0 0.0
2018-Sep-13 16:25N 60°10' E 024°55'0 0.0
2018-Sep-13 15:58N 60°10' E 024°55'0 0.0
2018-Sep-13 15:25N 60°10' E 024°55'0 0.0
2018-Sep-13 15:01N 60°10' E 024°55'0 0.0
2018-Sep-13 14:58N 60°10' E 024°55'0 0.0
2018-Sep-13 14:25N 60°10' E 024°55'0 0.0
2018-Sep-13 13:58N 60°10' E 024°55'0 0.0
2018-Sep-13 13:28N 60°10' E 024°55'0 0.0
2018-Sep-13 13:01N 60°10' E 024°55'0 0.0
2018-Sep-13 12:58N 60°10' E 024°55'0 0.0
2018-Sep-13 12:28N 60°10' E 024°55'0 0.0
2018-Sep-13 12:01N 60°10' E 024°55'0 0.0
2018-Sep-13 11:58N 60°10' E 024°55'0 0.0
2018-Sep-13 11:28N 60°10' E 024°55'0 0.0
2018-Sep-13 11:01N 60°10' E 024°55'0 0.0
2018-Sep-13 10:58N 60°10' E 024°55'0 0.0
2018-Sep-13 10:28N 60°10' E 024°55'0 0.0
2018-Sep-13 10:01N 60°10' E 024°55'0 0.0
2018-Sep-13 09:58N 60°10' E 024°55'0 0.0
2018-Sep-13 09:28N 60°10' E 024°55'0 0.0
2018-Sep-13 09:01N 60°10' E 024°55'0 0.0
2018-Sep-13 08:52N 60°10' E 024°55'0 0.0
2018-Sep-13 08:28N 60°10' E 024°55'0 0.0
2018-Sep-13 08:01N 60°10' E 024°55'0 0.0
2018-Sep-13 07:58N 60°10' E 024°55'0 0.0
2018-Sep-13 07:28N 60°10' E 024°55'0 0.0
2018-Sep-13 07:01N 60°10' E 024°55'0 0.0
2018-Sep-13 06:58N 60°10' E 024°55'0 0.0
2018-Sep-13 06:28N 60°10' E 024°55'0 0.0
2018-Sep-13 06:01N 60°10' E 024°55'0 0.0
2018-Sep-13 05:58N 60°10' E 024°55'0 0.0
2018-Sep-13 05:28N 60°10' E 024°55'0 0.0
2018-Sep-13 05:01N 60°10' E 024°55'0 0.4
2018-Sep-13 04:58N 60°10' E 024°55'0 0.0
2018-Sep-13 04:28N 60°10' E 024°55'0 0.0
2018-Sep-13 04:01N 60°10' E 024°55'0 0.1
2018-Sep-13 03:58N 60°10' E 024°55'0 0.0
2018-Sep-13 03:28N 60°10' E 024°55'0 0.0
2018-Sep-13 03:01N 60°10' E 024°55'0 0.0
2018-Sep-13 02:58N 60°10' E 024°55'0 0.0
2018-Sep-13 02:28N 60°10' E 024°55'0 0.0
2018-Sep-13 02:01N 60°10' E 024°55'0 0.0
2018-Sep-13 01:55N 60°10' E 024°55'0 0.0
2018-Sep-13 01:28N 60°10' E 024°55'0 0.0
2018-Sep-13 01:01N 60°10' E 024°55'0 0.1
2018-Sep-13 00:58N 60°10' E 024°55'0 0.0
2018-Sep-13 00:28N 60°10' E 024°55'0 0.0
2018-Sep-13 00:01N 60°10' E 024°55'0 0.0
2018-Sep-12 23:58N 60°10' E 024°55'0 0.0
2018-Sep-12 23:28N 60°10' E 024°55'0 0.0
2018-Sep-12 22:58N 60°10' E 024°55'0 0.0
2018-Sep-12 22:28N 60°10' E 024°55'0 0.0
2018-Sep-12 22:01N 60°10' E 024°55'0 0.0
2018-Sep-12 21:58N 60°10' E 024°55'0 0.0
2018-Sep-12 21:28N 60°10' E 024°55'0 0.0
2018-Sep-12 21:01N 60°10' E 024°55'0 0.0
2018-Sep-12 20:55N 60°10' E 024°55'0 0.0
2018-Sep-12 20:28N 60°10' E 024°55'0 0.0
2018-Sep-12 20:01N 60°10' E 024°55'0 0.0
2018-Sep-12 19:55N 60°10' E 024°55'0 0.0
2018-Sep-12 19:28N 60°10' E 024°55'0 0.0
2018-Sep-12 19:01N 60°10' E 024°55'0 0.0
2018-Sep-12 18:58N 60°10' E 024°55'0 0.0
2018-Sep-12 18:25N 60°10' E 024°55'0 0.0
2018-Sep-12 18:01N 60°10' E 024°55'0 0.0
2018-Sep-12 17:58N 60°10' E 024°55'0 0.0
2018-Sep-12 17:28N 60°10' E 024°55'0 0.0
2018-Sep-12 17:01N 60°10' E 024°55'0 0.0
2018-Sep-12 16:55N 60°10' E 024°55'0 0.0
2018-Sep-12 16:28N 60°10' E 024°55'0 0.0
2018-Sep-12 16:01N 60°10' E 024°55'0 0.0
2018-Sep-12 15:55N 60°10' E 024°55'0 0.0
2018-Sep-12 15:28N 60°10' E 024°55'0 0.0
2018-Sep-12 15:01N 60°10' E 024°55'0 0.0
2018-Sep-12 14:58N 60°10' E 024°55'0 0.0
2018-Sep-12 14:28N 60°10' E 024°55'0 0.0
2018-Sep-12 13:58N 60°10' E 024°55'0 0.0
2018-Sep-12 13:28N 60°10' E 024°55'0 0.1
2018-Sep-12 13:01N 60°09' E 024°55'0 0.4
2018-Sep-12 12:58N 60°10' E 024°55'0 0.0
2018-Sep-12 12:30N 60°10' E 024°55'0 0.0
2018-Sep-12 12:03N 60°10' E 024°55'0 0.0
2018-Sep-12 12:00N 60°10' E 024°55'0 0.0
2018-Sep-12 11:27N 60°10' E 024°55'0 0.0
2018-Sep-12 11:03N 60°10' E 024°55'0 0.0
2018-Sep-12 11:00N 60°10' E 024°55'0 0.0
2018-Sep-12 10:30N 60°10' E 024°55'0 0.0
2018-Sep-12 10:03N 60°10' E 024°55'0 0.0
2018-Sep-12 09:45N 60°10' E 024°55'0 0.0
2018-Sep-12 09:31N 60°10' E 024°55'0 0.0
2018-Sep-12 08:59N 60°10' E 024°55'0 0.0
2018-Sep-12 08:29N 60°10' E 024°55'0 0.0
2018-Sep-12 08:01N 60°10' E 024°55'0 0.0
2018-Sep-12 07:55N 60°10' E 024°55'0 0.0
2018-Sep-12 07:28N 60°10' E 024°55'0 0.0
2018-Sep-12 06:58N 60°10' E 024°55'0 0.0
2018-Sep-12 06:28N 60°10' E 024°55'0 0.0
2018-Sep-12 05:59N 60°10' E 024°55'0 0.0
2018-Sep-12 05:30N 60°10' E 024°55'0 0.0
2018-Sep-12 05:03N 60°10' E 024°55'0 0.0
2018-Sep-12 05:00N 60°10' E 024°55'0 0.0
2018-Sep-12 04:30N 60°10' E 024°55'0 0.0
2018-Sep-12 04:02N 60°10' E 024°55'0 0.0
2018-Sep-12 03:59N 60°10' E 024°55'0 0.0
2018-Sep-12 03:29N 60°10' E 024°55'0 0.0
2018-Sep-12 03:02N 60°10' E 024°55'0 0.0
2018-Sep-12 02:59N 60°10' E 024°55'0 0.0
2018-Sep-12 02:29N 60°10' E 024°55'0 0.0
2018-Sep-12 02:02N 60°10' E 024°55'0 0.0
2018-Sep-12 01:56N 60°10' E 024°55'0 0.0
2018-Sep-12 01:29N 60°10' E 024°55'0 0.0
2018-Sep-12 01:02N 60°10' E 024°55'0 0.0
2018-Sep-12 00:59N 60°10' E 024°55'0 0.0
2018-Sep-12 00:29N 60°10' E 024°55'0 0.0
2018-Sep-12 00:02N 60°10' E 024°55'0 0.0
2018-Sep-11 23:59N 60°10' E 024°55'0 0.0
2018-Sep-11 23:29N 60°10' E 024°55'0 0.0
2018-Sep-11 23:02N 60°10' E 024°55'0 0.0
2018-Sep-11 22:59N 60°10' E 024°55'0 0.0
2018-Sep-11 22:29N 60°10' E 024°55'0 0.0
2018-Sep-11 22:02N 60°10' E 024°55'0 0.0
2018-Sep-11 21:59N 60°10' E 024°55'0 0.0
2018-Sep-11 21:29N 60°10' E 024°55'0 0.0
2018-Sep-11 21:02N 60°10' E 024°55'0 0.0
2018-Sep-11 20:59N 60°10' E 024°55'0 0.0
2018-Sep-11 20:29N 60°10' E 024°55'0 0.0
2018-Sep-11 20:02N 60°10' E 024°55'0 0.0
2018-Sep-11 19:59N 60°10' E 024°55'0 0.0
2018-Sep-11 19:29N 60°10' E 024°55'0 0.0
2018-Sep-11 19:02N 60°10' E 024°55'0 0.0
2018-Sep-11 18:59N 60°10' E 024°55'0 0.0
2018-Sep-11 18:29N 60°10' E 024°55'0 0.0
2018-Sep-11 18:02N 60°10' E 024°55'0 0.0
2018-Sep-11 17:59N 60°10' E 024°55'0 0.0
2018-Sep-11 17:29N 60°10' E 024°55'0 0.0
2018-Sep-11 17:02N 60°10' E 024°55'0 0.0
2018-Sep-11 16:59N 60°10' E 024°55'0 0.0
2018-Sep-11 16:29N 60°10' E 024°55'0 0.0
2018-Sep-11 16:02N 60°10' E 024°55'0 0.0
2018-Sep-11 15:59N 60°10' E 024°55'0 0.0
2018-Sep-11 15:29N 60°10' E 024°55'0 0.0
2018-Sep-11 15:02N 60°10' E 024°55'0 0.0
2018-Sep-11 14:59N 60°10' E 024°55'0 0.0
2018-Sep-11 14:29N 60°10' E 024°55'0 0.0
2018-Sep-11 13:59N 60°10' E 024°55'0 0.0
2018-Sep-11 13:23N 60°10' E 024°55'0 0.0
2018-Sep-11 13:02N 60°10' E 024°55'0 0.0
2018-Sep-11 12:56N 60°10' E 024°55'0 0.0
2018-Sep-11 12:29N 60°10' E 024°55'0 0.0
2018-Sep-11 12:02N 60°10' E 024°55'0 0.0
2018-Sep-11 11:53N 60°10' E 024°55'0 0.0
2018-Sep-11 11:29N 60°10' E 024°55'0 0.0
2018-Sep-11 11:02N 60°10' E 024°55'0 0.0
2018-Sep-11 10:59N 60°10' E 024°55'0 0.0
2018-Sep-11 10:29N 60°10' E 024°55'0 0.0
2018-Sep-11 10:02N 60°10' E 024°55'0 0.0
2018-Sep-11 09:59N 60°10' E 024°55'0 0.0
2018-Sep-11 09:29N 60°10' E 024°55'0 0.0
2018-Sep-11 09:02N 60°10' E 024°55'0 0.0
2018-Sep-11 08:59N 60°10' E 024°55'0 0.0
2018-Sep-11 08:29N 60°10' E 024°55'0 0.0
2018-Sep-11 08:02N 60°10' E 024°55'0 0.0
2018-Sep-11 07:59N 60°10' E 024°55'0 0.0
2018-Sep-11 07:29N 60°10' E 024°55'0 0.0
2018-Sep-11 07:02N 60°10' E 024°55'0 0.0
2018-Sep-11 06:59N 60°10' E 024°55'0 0.0
2018-Sep-11 06:26N 60°10' E 024°55'0 0.0
2018-Sep-11 06:02N 60°10' E 024°55'0 0.0
2018-Sep-11 05:59N 60°10' E 024°55'0 0.0
2018-Sep-11 05:29N 60°10' E 024°55'0 0.0
2018-Sep-11 04:59N 60°10' E 024°55'0 0.0
2018-Sep-11 04:26N 60°10' E 024°55'0 0.0
2018-Sep-11 04:02N 60°10' E 024°55'0 0.0
2018-Sep-11 03:59N 60°10' E 024°55'0 0.0
2018-Sep-11 03:29N 60°10' E 024°55'0 0.0
2018-Sep-11 03:02N 60°10' E 024°55'0 0.0
2018-Sep-11 02:59N 60°10' E 024°55'0 0.0
2018-Sep-11 02:26N 60°10' E 024°55'0 0.0
2018-Sep-11 02:02N 60°10' E 024°55'0 0.0
2018-Sep-11 01:59N 60°10' E 024°55'0 0.0
2018-Sep-11 01:26N 60°10' E 024°55'0 0.0
2018-Sep-11 01:02N 60°10' E 024°55'0 0.0
2018-Sep-11 00:59N 60°10' E 024°55'0 0.0
2018-Sep-11 00:29N 60°10' E 024°55'0 0.0
2018-Sep-11 00:02N 60°10' E 024°55'0 0.0
2018-Sep-10 23:56N 60°10' E 024°55'0 0.0
2018-Sep-10 23:29N 60°10' E 024°55'0 0.0
2018-Sep-10 23:02N 60°10' E 024°55'0 0.0
2018-Sep-10 22:56N 60°10' E 024°55'0 0.0
2018-Sep-10 22:26N 60°10' E 024°55'0 0.0
2018-Sep-10 22:02N 60°10' E 024°55'0 0.0
2018-Sep-10 21:59N 60°10' E 024°55'0 0.0
2018-Sep-10 21:29N 60°10' E 024°55'0 0.0
2018-Sep-10 21:02N 60°10' E 024°55'0 0.0
2018-Sep-10 20:59N 60°10' E 024°55'0 0.0
2018-Sep-10 20:29N 60°10' E 024°55'0 0.0
2018-Sep-10 19:59N 60°10' E 024°55'0 0.0
2018-Sep-10 19:29N 60°10' E 024°55'0 0.0
2018-Sep-10 19:02N 60°10' E 024°55'0 0.0
2018-Sep-10 18:56N 60°10' E 024°55'0 0.0
2018-Sep-10 18:29N 60°10' E 024°55'0 0.0
2018-Sep-10 18:02N 60°10' E 024°55'0 0.0
2018-Sep-10 17:59N 60°10' E 024°55'0 0.0
2018-Sep-10 17:29N 60°10' E 024°55'0 0.0
2018-Sep-10 17:02N 60°10' E 024°55'0 0.0
2018-Sep-10 16:56N 60°10' E 024°55'0 0.0
2018-Sep-10 16:29N 60°10' E 024°55'0 0.0
2018-Sep-10 16:02N 60°10' E 024°55'0 0.0
2018-Sep-10 15:59N 60°10' E 024°55'0 0.0
2018-Sep-10 15:29N 60°10' E 024°55'0 0.0
2018-Sep-10 15:02N 60°10' E 024°55'0 0.0
2018-Sep-10 14:59N 60°10' E 024°55'0 0.0
2018-Sep-10 14:29N 60°10' E 024°55'0 0.0
2018-Sep-10 13:59N 60°10' E 024°55'0 0.0
2018-Sep-10 13:29N 60°10' E 024°55'0 0.0
2018-Sep-10 13:02N 60°10' E 024°55'0 0.1
2018-Sep-10 12:59N 60°10' E 024°55'0 0.0
2018-Sep-10 12:29N 60°10' E 024°55'0 0.0
2018-Sep-10 12:02N 60°10' E 024°55'0 0.0
2018-Sep-10 11:59N 60°10' E 024°55'0 0.0
2018-Sep-10 11:29N 60°10' E 024°55'0 0.0
2018-Sep-10 11:02N 60°10' E 024°55'0 0.0
2018-Sep-10 10:59N 60°10' E 024°55'0 0.0
2018-Sep-10 10:29N 60°10' E 024°55'0 0.0
2018-Sep-10 10:02N 60°10' E 024°55'0 0.0
2018-Sep-10 09:59N 60°10' E 024°55'0 0.0
2018-Sep-10 09:29N 60°10' E 024°55'0 0.0
2018-Sep-10 09:02N 60°10' E 024°55'0 0.0
2018-Sep-10 08:59N 60°10' E 024°55'0 0.0
2018-Sep-10 08:29N 60°10' E 024°55'0 0.0
2018-Sep-10 07:59N 60°10' E 024°55'0 0.0
2018-Sep-10 07:29N 60°10' E 024°55'0 0.0
2018-Sep-10 07:02N 60°10' E 024°55'0 0.0
2018-Sep-10 06:59N 60°10' E 024°55'0 0.0
2018-Sep-10 06:29N 60°10' E 024°55'0 0.0
2018-Sep-10 06:02N 60°10' E 024°55'0 0.0
2018-Sep-10 05:59N 60°10' E 024°55'0 0.0
2018-Sep-10 05:29N 60°10' E 024°55'0 0.0
2018-Sep-10 05:02N 60°10' E 024°55'0 0.0
2018-Sep-10 04:59N 60°10' E 024°55'0 0.0
2018-Sep-10 04:29N 60°10' E 024°55'0 0.0
2018-Sep-10 04:02N 60°10' E 024°55'0 0.0
2018-Sep-10 03:59N 60°10' E 024°55'0 0.0
2018-Sep-10 03:26N 60°10' E 024°55'0 0.0
2018-Sep-10 03:02N 60°10' E 024°55'0 0.0
2018-Sep-10 02:56N 60°10' E 024°55'0 0.0
2018-Sep-10 02:29N 60°10' E 024°55'0 0.0
2018-Sep-10 01:59N 60°10' E 024°55'0 0.0
2018-Sep-10 01:29N 60°10' E 024°55'0 0.0
2018-Sep-10 01:02N 60°10' E 024°55'0 0.0
2018-Sep-10 00:56N 60°10' E 024°55'0 0.0
2018-Sep-10 00:29N 60°10' E 024°55'0 0.0
2018-Sep-10 00:02N 60°10' E 024°55'0 0.0
2018-Sep-09 23:59N 60°10' E 024°55'0 0.0
2018-Sep-09 23:26N 60°10' E 024°55'0 0.0
2018-Sep-09 23:02N 60°10' E 024°55'0 0.0
2018-Sep-09 22:59N 60°10' E 024°55'0 0.0
2018-Sep-09 22:29N 60°10' E 024°55'0 0.0
2018-Sep-09 22:02N 60°10' E 024°55'0 0.0
2018-Sep-09 21:59N 60°10' E 024°55'0 0.0
2018-Sep-09 21:29N 60°10' E 024°55'0 0.0
2018-Sep-09 21:02N 60°10' E 024°55'0 0.0
2018-Sep-09 20:59N 60°10' E 024°55'0 0.0
2018-Sep-09 20:23N 60°10' E 024°55'0 0.0
2018-Sep-09 20:02N 60°10' E 024°55'0 0.0
2018-Sep-09 19:59N 60°10' E 024°55'0 0.0
2018-Sep-09 19:29N 60°10' E 024°55'0 0.0
2018-Sep-09 19:02N 60°10' E 024°55'0 0.0
2018-Sep-09 18:59N 60°10' E 024°55'0 0.0
2018-Sep-09 18:29N 60°10' E 024°55'0 0.0
2018-Sep-09 17:59N 60°10' E 024°55'0 0.0
2018-Sep-09 17:29N 60°10' E 024°55'0 0.0
2018-Sep-09 16:59N 60°10' E 024°55'0 0.0
2018-Sep-09 16:29N 60°10' E 024°55'0 0.0
2018-Sep-09 16:02N 60°10' E 024°55'0 0.0
2018-Sep-09 15:59N 60°10' E 024°55'0 0.0
2018-Sep-09 15:29N 60°10' E 024°55'0 0.0
2018-Sep-09 14:59N 60°10' E 024°55'0 0.0
2018-Sep-09 14:26N 60°10' E 024°55'0 0.0
2018-Sep-09 13:59N 60°10' E 024°55'0 0.0
2018-Sep-09 13:29N 60°10' E 024°55'0 0.0
2018-Sep-09 13:02N 60°10' E 024°55'0 0.0
2018-Sep-09 12:59N 60°10' E 024°55'0 0.0
2018-Sep-09 12:29N 60°10' E 024°55'0 0.0
2018-Sep-09 12:02N 60°10' E 024°55'0 0.0
2018-Sep-09 11:59N 60°10' E 024°55'0 0.0
2018-Sep-09 11:29N 60°10' E 024°55'0 0.0
2018-Sep-09 11:02N 60°10' E 024°55'0 0.0
2018-Sep-09 10:59N 60°10' E 024°55'0 0.0
2018-Sep-09 10:29N 60°10' E 024°55'0 0.0
2018-Sep-09 10:02N 60°10' E 024°55'0 0.0
2018-Sep-09 09:59N 60°10' E 024°55'0 0.0
2018-Sep-09 09:29N 60°10' E 024°55'0 0.0
2018-Sep-09 09:02N 60°10' E 024°55'0 0.0
2018-Sep-09 08:56N 60°10' E 024°55'0 0.0
2018-Sep-09 08:29N 60°10' E 024°55'0 0.0
2018-Sep-09 08:02N 60°10' E 024°55'0 0.0
2018-Sep-09 07:59N 60°10' E 024°55'0 0.0
2018-Sep-09 07:29N 60°10' E 024°55'0 0.0
2018-Sep-09 07:02N 60°10' E 024°55'0 0.0
2018-Sep-09 06:59N 60°10' E 024°55'0 0.0
2018-Sep-09 06:29N 60°10' E 024°55'0 0.0
2018-Sep-09 06:02N 60°10' E 024°55'0 0.0
2018-Sep-09 05:59N 60°10' E 024°55'0 0.0
2018-Sep-09 05:29N 60°10' E 024°55'0 0.0
2018-Sep-09 04:59N 60°10' E 024°55'0 0.0
2018-Sep-09 04:29N 60°10' E 024°55'0 0.0
2018-Sep-09 04:02N 60°10' E 024°55'0 0.0
2018-Sep-09 03:59N 60°10' E 024°55'0 0.0
2018-Sep-09 03:29N 60°10' E 024°55'0 0.0
2018-Sep-09 03:02N 60°10' E 024°55'0 0.0
2018-Sep-09 02:59N 60°10' E 024°55'0 0.0
2018-Sep-09 02:29N 60°10' E 024°55'0 0.0
2018-Sep-09 02:02N 60°10' E 024°55'0 0.0
2018-Sep-09 01:59N 60°10' E 024°55'0 0.0
2018-Sep-09 01:29N 60°10' E 024°55'0 0.0
2018-Sep-09 00:59N 60°10' E 024°55'0 0.0
2018-Sep-09 00:29N 60°10' E 024°55'0 0.0
2018-Sep-09 00:02N 60°10' E 024°55'0 0.0
2018-Sep-08 23:59N 60°10' E 024°55'0 0.0
2018-Sep-08 23:26N 60°10' E 024°55'0 0.0
2018-Sep-08 23:02N 60°10' E 024°55'0 0.0
2018-Sep-08 22:59N 60°10' E 024°55'0 0.0
2018-Sep-08 22:29N 60°10' E 024°55'0 0.0
2018-Sep-08 21:59N 60°10' E 024°55'0 0.0
2018-Sep-08 21:29N 60°10' E 024°55'0 0.0
2018-Sep-08 21:02N 60°10' E 024°55'0 0.0
2018-Sep-08 20:59N 60°10' E 024°55'0 0.0
2018-Sep-08 20:29N 60°10' E 024°55'0 0.0
2018-Sep-08 19:59N 60°10' E 024°55'0 0.0
2018-Sep-08 19:29N 60°10' E 024°55'0 0.0
2018-Sep-08 19:02N 60°10' E 024°55'0 0.0
2018-Sep-08 18:59N 60°10' E 024°55'0 0.0
2018-Sep-08 18:26N 60°10' E 024°55'0 0.0
2018-Sep-08 18:02N 60°10' E 024°55'0 0.0
2018-Sep-08 17:59N 60°10' E 024°55'0 0.0
2018-Sep-08 17:29N 60°10' E 024°55'0 0.0
2018-Sep-08 17:02N 60°10' E 024°55'0 0.0
2018-Sep-08 16:59N 60°10' E 024°55'0 0.0
2018-Sep-08 16:29N 60°10' E 024°55'0 0.0
2018-Sep-08 15:59N 60°10' E 024°55'0 0.0
2018-Sep-08 15:29N 60°10' E 024°55'0 0.0
2018-Sep-08 14:59N 60°10' E 024°55'0 0.0
2018-Sep-08 14:29N 60°10' E 024°55'0 0.0
2018-Sep-08 13:59N 60°10' E 024°55'0 0.0
2018-Sep-08 13:29N 60°10' E 024°55'0 0.0
2018-Sep-08 13:02N 60°10' E 024°55'0 0.0
2018-Sep-08 12:59N 60°10' E 024°55'0 0.0
2018-Sep-08 12:26N 60°10' E 024°55'0 0.0
2018-Sep-08 11:59N 60°10' E 024°55'0 0.0
2018-Sep-08 11:29N 60°10' E 024°55'0 0.0
2018-Sep-08 11:02N 60°10' E 024°55'0 0.0
2018-Sep-08 10:59N 60°10' E 024°55'0 0.0
2018-Sep-08 10:29N 60°10' E 024°55'0 0.0
2018-Sep-08 10:02N 60°10' E 024°55'0 0.0
2018-Sep-08 09:59N 60°10' E 024°55'0 0.0
2018-Sep-08 09:29N 60°10' E 024°55'  

Dump ship's entire track history